Time;durP1;ratioP1;P1;durP2;ratioP2;P2;SDS_P1;SDS_P2;PMS_P1;PMS_P2;Temp;Humidity;BMP_temperature;BMP_pressure;BME280_temperature;BME280_humidity;BME280_pressure;Samples;Min_cycle;Max_cycle;Signal;HPM_P1;HPM_P2
2023/10/15 00:01:12;;;;;;;8.43;1.80;;;7.30;94.20;;;;;;5024054;28;20025;-75
2023/10/15 00:03:38;;;;;;;3.78;1.08;;;7.30;94.10;;;;;;5030250;28;20118;-75
2023/10/15 00:06:04;;;;;;;5.10;0.90;;;7.40;94.10;;;;;;5029606;28;20043;-75
2023/10/15 00:08:30;;;;;;;4.70;1.85;;;7.30;94.00;;;;;;5034008;28;20040;-74
2023/10/15 00:10:56;;;;;;;7.47;1.30;;;7.30;94.10;;;;;;5031013;28;20056;-75
2023/10/15 00:13:22;;;;;;;5.90;1.42;;;7.20;94.20;;;;;;5023259;28;20148;-75
2023/10/15 00:15:47;;;;;;;4.88;1.30;;;7.20;94.70;;;;;;5036955;28;20044;-75
2023/10/15 00:18:13;;;;;;;3.70;1.70;;;7.20;94.40;;;;;;5021854;28;20040;-75
2023/10/15 00:20:40;;;;;;;4.95;1.83;;;7.20;94.40;;;;;;5038065;28;20427;-75
2023/10/15 00:23:06;;;;;;;4.65;1.85;;;7.20;94.40;;;;;;5025571;28;20100;-75
2023/10/15 00:25:36;;;;;;;7.05;1.65;;;7.10;94.50;;;;;;5032980;28;20033;-76
2023/10/15 00:28:05;;;;;;;5.88;1.58;;;7.20;94.50;;;;;;5027860;28;20040;-75
2023/10/15 00:30:32;;;;;;;;;;;7.30;94.40;;;;;;5032330;28;20043;-75
2023/10/15 00:32:59;;;;;;;2.67;1.60;;;7.30;94.20;;;;;;5024258;28;19971;-75
2023/10/15 00:35:25;;;;;;;4.88;1.10;;;7.30;94.20;;;;;;5034979;28;20041;-75
2023/10/15 00:37:54;;;;;;;3.28;1.02;;;7.20;94.20;;;;;;5022193;28;20032;-75
2023/10/15 00:40:21;;;;;;;6.82;1.55;;;7.20;94.30;;;;;;5035423;28;20090;-75
2023/10/15 00:42:48;;;;;;;5.43;1.45;;;7.20;94.40;;;;;;5023480;28;20068;-75
2023/10/15 00:45:14;;;;;;;4.57;1.13;;;7.10;94.60;;;;;;5033327;28;20112;-75
2023/10/15 00:47:51;;;;;;;2.80;1.00;;;7.10;94.70;;;;;;5023835;28;20025;-76
2023/10/15 00:50:17;;;;;;;6.03;1.27;;;7.00;94.80;;;;;;5031741;28;20033;-75
2023/10/15 00:52:43;;;;;;;5.28;1.20;;;6.90;94.80;;;;;;5025493;28;20053;-75
2023/10/15 00:55:19;;;;;;;4.90;1.55;;;6.90;94.90;;;;;;5034008;28;20036;-75
2023/10/15 00:57:47;;;;;;;3.70;1.30;;;6.90;95.00;;;;;;5027444;28;20037;-75
2023/10/15 01:01:21;;;;;;;4.05;1.40;;;6.80;95.10;;;;;;5030032;28;20043;-75
2023/10/15 01:03:04;;;;;;;5.05;1.30;;;6.70;95.20;;;;;;5025401;28;20075;-75
2023/10/15 01:05:35;;;;;;;1.45;0.73;;;6.70;95.30;;;;;;5030454;28;20036;-76
2023/10/15 01:08:04;;;;;;;2.58;1.10;;;6.70;95.20;;;;;;5035991;28;20033;-75
2023/10/15 01:10:36;;;;;;;;;;;6.70;95.10;;;;;;5026988;28;20749;-76
2023/10/15 01:13:21;;;;;;;4.28;1.00;;;6.70;95.30;;;;;;5034186;28;19956;-75
2023/10/15 01:15:52;;;;;;;3.47;0.90;;;6.70;95.20;;;;;;5031410;28;20044;-74
2023/10/15 01:18:19;;;;;;;7.72;0.90;;;6.70;95.30;;;;;;5029367;28;20165;-74
2023/10/15 01:20:44;;;;;;;5.95;1.20;;;6.70;95.20;;;;;;5027729;28;20127;-75
2023/10/15 01:23:58;;;;;;;3.83;0.90;;;6.70;95.40;;;;;;5035088;28;20063;-74
2023/10/15 01:25:57;;;;;;;6.28;1.10;;;6.60;95.30;;;;;;5023634;28;20033;-74
2023/10/15 01:28:35;;;;;;;2.00;1.13;;;6.60;95.40;;;;;;5036202;28;20029;-74
2023/10/15 01:31:04;;;;;;;3.60;1.08;;;6.50;95.40;;;;;;5019481;28;20643;-74
2023/10/15 01:33:30;;;;;;;4.60;1.15;;;6.50;95.40;;;;;;5034056;28;20769;-74
2023/10/15 01:36:01;;;;;;;4.50;0.90;;;6.50;95.40;;;;;;5035981;28;20086;-74
2023/10/15 01:38:29;;;;;;;4.38;1.05;;;6.50;95.40;;;;;;5040043;28;20028;-74
2023/10/15 01:40:56;;;;;;;2.88;1.10;;;6.50;95.40;;;;;;5045240;28;20025;-74
2023/10/15 01:43:23;;;;;;;3.63;1.05;;;6.40;95.50;;;;;;5052326;28;20113;-75
2023/10/15 01:45:57;;;;;;;2.85;0.77;;;6.40;95.70;;;;;;5021398;28;20083;-75
2023/10/15 01:48:24;;;;;;;3.38;0.85;;;6.30;95.90;;;;;;5035056;28;20025;-75
2023/10/15 01:50:51;;;;;;;2.85;0.88;;;6.30;96.00;;;;;;5020926;28;20030;-75
2023/10/15 01:53:23;;;;;;;3.42;1.42;;;6.20;96.10;;;;;;5036586;28;20500;-75
2023/10/15 01:55:59;;;;;;;2.97;0.90;;;6.10;96.20;;;;;;5019692;28;20112;-75
2023/10/15 01:58:30;;;;;;;2.15;0.80;;;6.10;96.20;;;;;;5030408;28;20036;-75
2023/10/15 02:01:04;;;;;;;4.43;1.20;;;6.10;96.30;;;;;;5021982;28;20034;-75
2023/10/15 02:03:31;;;;;;;4.28;1.30;;;6.00;96.50;;;;;;5020433;28;20025;-75
2023/10/15 02:06:04;;;;;;;1.45;0.88;;;6.00;96.50;;;;;;5019859;28;20462;-74
2023/10/15 02:08:30;;;;;;;4.10;1.00;;;6.00;96.50;;;;;;5027520;28;20033;-74
2023/10/15 02:10:55;;;;;;;6.30;1.25;;;5.90;96.60;;;;;;5030720;28;20535;-74
2023/10/15 02:13:21;;;;;;;4.65;1.00;;;5.90;96.60;;;;;;5011547;28;20485;-74
2023/10/15 02:15:49;;;;;;;6.28;1.27;;;5.90;96.50;;;;;;5024346;28;20041;-74
2023/10/15 02:18:17;;;;;;;3.72;1.13;;;5.90;96.60;;;;;;5020765;28;20513;-74
2023/10/15 02:20:47;;;;;;;3.05;0.90;;;5.90;96.70;;;;;;5034623;28;20047;-75
2023/10/15 02:23:15;;;;;;;3.03;1.02;;;5.90;96.70;;;;;;5018699;28;20033;-74
2023/10/15 02:25:57;;;;;;;1.90;0.82;;;5.90;96.70;;;;;;5033302;28;20056;-74
2023/10/15 02:28:26;;;;;;;3.28;0.95;;;5.80;96.80;;;;;;5020642;28;20065;-74
2023/10/15 02:31:14;;;;;;;7.70;1.50;;;5.80;96.80;;;;;;5028956;28;21590;-75
2023/10/15 02:33:39;;;;;;;1.98;0.80;;;5.80;97.00;;;;;;5023184;28;20040;-75
2023/10/15 02:36:09;;;;;;;1.75;0.82;;;5.70;97.00;;;;;;5028421;28;20091;-75
2023/10/15 02:38:36;;;;;;;1.73;0.95;;;5.70;96.90;;;;;;5025683;28;20566;-75
2023/10/15 02:43:29;;;;;;;2.15;1.00;;;5.80;96.90;;;;;;5020698;28;20550;-75
2023/10/15 02:46:00;;;;;;;2.85;0.90;;;5.90;96.70;;;;;;5037808;28;20485;-74
2023/10/15 02:48:54;;;;;;;4.85;0.90;;;5.90;96.50;;;;;;5029591;28;20063;-75
2023/10/15 02:51:24;;;;;;;5.28;0.95;;;6.00;96.40;;;;;;5035738;28;20092;-74
2023/10/15 02:53:53;;;;;;;3.22;0.82;;;6.00;96.30;;;;;;5024975;28;20272;-74
2023/10/15 02:56:20;;;;;;;8.33;1.03;;;5.90;96.40;;;;;;5031281;28;20581;-74
2023/10/15 02:58:46;;;;;;;1.98;0.95;;;6.00;96.40;;;;;;5033750;28;20075;-75
2023/10/15 03:01:17;;;;;;;4.90;1.30;;;6.00;96.20;;;;;;5027581;28;20022;-74
2023/10/15 03:03:48;;;;;;;2.00;0.73;;;6.00;96.20;;;;;;5036424;28;20143;-73
2023/10/15 03:06:18;;;;;;;1.15;0.60;;;6.00;96.20;;;;;;5030073;28;20039;-74
2023/10/15 03:08:46;;;;;;;4.57;1.02;;;6.10;96.10;;;;;;5040462;28;20477;-74
2023/10/15 03:11:13;;;;;;;5.40;0.80;;;6.10;96.00;;;;;;5028520;28;20083;-74
2023/10/15 03:13:50;;;;;;;4.03;1.02;;;6.10;95.90;;;;;;5036735;28;20118;-74
2023/10/15 03:16:18;;;;;;;5.60;0.98;;;6.10;96.10;;;;;;5022490;28;20029;-74
2023/10/15 03:18:48;;;;;;;2.22;0.75;;;6.10;95.80;;;;;;5037229;28;20041;-74
2023/10/15 03:21:19;;;;;;;2.53;0.73;;;6.10;95.80;;;;;;5025719;28;20040;-75
2023/10/15 03:23:48;;;;;;;4.70;1.00;;;6.10;95.80;;;;;;5034711;28;20017;-75
2023/10/15 03:26:17;;;;;;;4.10;0.90;;;6.10;95.90;;;;;;5028827;28;20084;-74
2023/10/15 03:28:45;;;;;;;6.63;0.60;;;6.00;95.90;;;;;;5036378;28;20583;-74
2023/10/15 03:31:14;;;;;;;1.90;0.77;;;6.00;95.90;;;;;;5027157;28;20164;-74
2023/10/15 03:33:58;;;;;;;5.10;0.80;;;6.00;96.00;;;;;;5037201;28;20044;-74
2023/10/15 03:36:24;;;;;;;3.83;0.80;;;5.90;96.10;;;;;;5023021;28;20033;-74
2023/10/15 03:38:50;;;;;;;4.10;1.38;;;5.90;96.10;;;;;;5041002;28;20033;-74
2023/10/15 03:41:27;;;;;;;3.50;1.08;;;5.90;96.10;;;;;;5028898;28;20424;-74
2023/10/15 03:43:56;;;;;;;6.78;0.80;;;5.90;96.20;;;;;;5034326;28;20030;-74
2023/10/15 03:46:25;;;;;;;5.15;0.90;;;5.80;96.20;;;;;;5026808;28;20060;-74
2023/10/15 03:48:53;;;;;;;4.15;1.15;;;5.80;96.40;;;;;;5036464;28;20497;-74
2023/10/15 03:51:21;;;;;;;4.93;0.90;;;5.80;96.50;;;;;;5028883;28;20032;-74
2023/10/15 03:53:49;;;;;;;6.25;0.80;;;5.70;96.70;;;;;;5041083;28;20037;-74
2023/10/15 03:56:33;;;;;;;6.07;0.70;;;5.70;96.70;;;;;;5027168;28;20067;-75
2023/10/15 03:58:59;;;;;;;2.53;0.68;;;5.60;96.70;;;;;;5040165;28;20033;-76
2023/10/15 04:01:27;;;;;;;4.65;1.02;;;5.60;96.70;;;;;;5026080;28;20029;-76
2023/10/15 04:03:53;;;;;;;2.70;0.82;;;5.60;96.80;;;;;;5033754;28;20082;-76
2023/10/15 04:06:20;;;;;;;4.82;0.90;;;5.70;96.70;;;;;;5024571;28;20036;-76
2023/10/15 04:09:15;;;;;;;2.25;0.90;;;5.70;96.70;;;;;;5037710;28;20033;-75
2023/10/15 04:11:48;;;;;;;3.15;0.98;;;5.70;96.70;;;;;;5025115;28;20031;-74
2023/10/15 04:16:41;;;;;;;5.60;1.70;;;5.70;96.60;;;;;;5032251;28;20303;-75
2023/10/15 04:19:08;;;;;;;4.57;1.00;;;5.70;96.60;;;;;;5042204;28;20531;-74
2023/10/15 04:21:38;;;;;;;4.43;0.90;;;5.60;96.70;;;;;;5059314;28;20931;-74
2023/10/15 04:24:06;;;;;;;5.43;0.85;;;5.60;96.80;;;;;;5039835;28;20401;-76
2023/10/15 04:26:35;;;;;;;7.03;0.63;;;5.60;97.00;;;;;;5038222;28;20204;-76
2023/10/15 04:29:15;;;;;;;2.45;0.57;;;5.50;96.90;;;;;;5025189;28;20033;-76
2023/10/15 04:31:44;;;;;;;6.43;1.25;;;5.50;97.10;;;;;;5036861;28;20036;-76
2023/10/15 04:34:16;;;;;;;3.95;0.77;;;5.60;97.00;;;;;;5025702;28;20090;-75
2023/10/15 04:36:43;;;;;;;2.55;0.60;;;5.50;96.90;;;;;;5033648;28;20064;-76
2023/10/15 04:39:12;;;;;;;1.92;0.55;;;5.50;97.00;;;;;;5026563;28;20044;-76
2023/10/15 04:41:38;;;;;;;2.75;0.60;;;5.50;97.00;;;;;;5038493;28;20082;-76
2023/10/15 04:44:04;;;;;;;3.67;0.75;;;5.60;97.10;;;;;;5021115;28;21598;-76
2023/10/15 04:46:40;;;;;;;2.40;0.85;;;5.60;97.00;;;;;;5036647;28;20029;-76
2023/10/15 04:49:07;;;;;;;1.92;0.70;;;5.50;97.00;;;;;;5024435;28;20151;-76
2023/10/15 04:51:42;;;;;;;2.85;0.75;;;5.50;97.10;;;;;;5036324;28;20023;-75
2023/10/15 04:54:09;;;;;;;4.20;0.85;;;5.50;97.10;;;;;;5026095;28;20055;-74
2023/10/15 04:56:36;;;;;;;5.03;0.50;;;5.50;97.10;;;;;;5031926;28;20068;-75
2023/10/15 04:59:02;;;;;;;2.90;0.77;;;5.50;97.10;;;;;;5024065;28;20033;-75
2023/10/15 05:01:28;;;;;;;7.07;1.02;;;5.50;97.10;;;;;;5036946;28;20447;-75
2023/10/15 05:03:53;;;;;;;1.23;0.60;;;5.40;97.20;;;;;;5018750;28;20033;-75
2023/10/15 05:06:21;;;;;;;3.38;1.30;;;5.40;97.20;;;;;;5035788;28;20039;-75
2023/10/15 05:08:47;;;;;;;4.00;0.80;;;5.40;97.30;;;;;;5020816;28;20098;-74
2023/10/15 05:11:13;;;;;;;6.45;0.93;;;5.40;97.20;;;;;;5033249;28;20029;-75
2023/10/15 05:13:42;;;;;;;3.20;0.93;;;5.40;97.20;;;;;;5024612;28;20036;-75
2023/10/15 05:16:08;;;;;;;4.20;0.60;;;5.50;97.20;;;;;;5038302;28;20029;-75
2023/10/15 05:18:34;;;;;;;3.00;0.57;;;5.50;97.20;;;;;;5027387;28;20043;-75
2023/10/15 05:21:00;;;;;;;4.18;0.90;;;5.50;97.20;;;;;;5036147;28;20028;-75
2023/10/15 05:23:26;;;;;;;4.82;0.70;;;5.40;97.20;;;;;;5035103;28;20032;-75
2023/10/15 05:25:54;;;;;;;4.28;0.70;;;5.40;97.30;;;;;;5028769;28;20650;-75
2023/10/15 05:28:20;;;;;;;6.93;0.93;;;5.40;97.30;;;;;;5039621;28;20040;-75
2023/10/15 05:30:46;;;;;;;5.13;1.10;;;5.40;97.30;;;;;;5020076;28;20059;-75
2023/10/15 05:33:12;;;;;;;2.85;0.70;;;5.30;97.30;;;;;;5040409;28;20258;-75
2023/10/15 05:35:39;;;;;;;5.47;1.10;;;5.30;97.40;;;;;;5019670;28;20060;-76
2023/10/15 05:38:09;;;;;;;4.93;0.75;;;5.20;97.50;;;;;;5033054;28;20037;-75
2023/10/15 05:40:36;;;;;;;4.82;0.85;;;5.20;97.60;;;;;;5022314;28;20175;-75
2023/10/15 05:43:02;;;;;;;4.53;0.82;;;5.20;97.60;;;;;;5032149;28;20505;-75
2023/10/15 05:45:28;;;;;;;3.67;0.73;;;5.20;97.70;;;;;;5023925;28;20113;-75
2023/10/15 05:47:53;;;;;;;3.05;0.80;;;5.10;97.90;;;;;;5036039;28;20083;-75
2023/10/15 05:50:19;;;;;;;4.82;0.82;;;5.10;97.90;;;;;;5019457;28;20481;-75
2023/10/15 05:52:45;;;;;;;3.30;0.90;;;5.10;98.00;;;;;;5036120;28;20056;-75
2023/10/15 05:55:11;;;;;;;7.28;0.82;;;5.00;98.10;;;;;;5027656;28;20532;-74
2023/10/15 05:57:37;;;;;;;4.95;0.80;;;5.00;98.10;;;;;;5032773;28;20064;-73
2023/10/15 06:00:17;;;;;;;4.40;1.30;;;5.00;98.30;;;;;;5026666;28;20029;-74
2023/10/15 06:02:47;;;;;;;3.75;1.13;;;4.90;98.30;;;;;;5037092;28;20037;-74
2023/10/15 06:05:14;;;;;;;4.00;0.68;;;4.90;98.40;;;;;;5023923;28;20036;-74
2023/10/15 06:07:42;;;;;;;4.28;1.00;;;4.90;98.70;;;;;;5034215;28;20085;-76
2023/10/15 06:10:09;;;;;;;1.45;0.70;;;4.80;98.50;;;;;;5023822;28;20033;-74
2023/10/15 06:12:35;;;;;;;2.10;0.77;;;4.70;98.70;;;;;;5027170;28;20029;-74
2023/10/15 06:15:01;;;;;;;2.08;0.80;;;4.80;98.80;;;;;;5036217;28;20492;-74
2023/10/15 06:17:27;;;;;;;2.15;1.08;;;4.80;98.80;;;;;;5019460;28;20048;-74
2023/10/15 06:19:53;;;;;;;1.60;0.70;;;4.80;98.80;;;;;;5035102;28;20133;-74
2023/10/15 06:22:19;;;;;;;6.88;1.10;;;4.80;98.80;;;;;;5024976;28;20098;-74
2023/10/15 06:24:46;;;;;;;1.40;0.70;;;4.80;98.80;;;;;;5034008;28;20481;-73
2023/10/15 06:27:13;;;;;;;5.32;0.93;;;4.80;98.80;;;;;;5025252;28;20049;-73
2023/10/15 06:29:39;;;;;;;3.30;0.98;;;4.80;98.80;;;;;;5035349;28;20025;-74
2023/10/15 06:32:05;;;;;;;6.28;0.90;;;4.80;98.80;;;;;;5023143;28;20044;-74
2023/10/15 06:34:32;;;;;;;3.92;0.80;;;4.80;98.90;;;;;;5035683;28;20481;-74
2023/10/15 06:36:57;;;;;;;6.65;1.35;;;4.80;98.80;;;;;;5018419;28;21477;-74
2023/10/15 06:39:23;;;;;;;5.00;1.23;;;4.70;98.80;;;;;;5032372;28;20033;-76
2023/10/15 06:41:48;;;;;;;2.97;0.80;;;4.80;98.90;;;;;;5020822;28;20549;-76
2023/10/15 06:44:16;;;;;;;8.32;1.35;;;4.80;98.90;;;;;;5027953;28;20469;-76
2023/10/15 06:46:42;;;;;;;3.55;1.20;;;4.80;98.80;;;;;;5021242;28;20064;-76
2023/10/15 06:49:08;;;;;;;3.28;1.38;;;4.80;98.80;;;;;;5032498;28;20045;-76
2023/10/15 06:51:34;;;;;;;5.05;1.10;;;4.90;98.70;;;;;;5019833;28;20036;-76
2023/10/15 06:54:00;;;;;;;3.78;1.60;;;4.90;98.70;;;;;;5037466;28;20078;-75
2023/10/15 06:56:27;;;;;;;4.95;1.02;;;4.90;98.60;;;;;;5039356;28;20033;-76
2023/10/15 06:58:53;;;;;;;6.63;1.10;;;5.00;98.50;;;;;;5034938;28;20029;-74
2023/10/15 07:01:18;;;;;;;5.20;1.00;;;5.00;98.40;;;;;;5054245;28;20944;-75
2023/10/15 07:03:44;;;;;;;3.70;0.60;;;5.00;98.40;;;;;;5019245;28;20041;-74
2023/10/15 07:06:10;;;;;;;3.40;1.00;;;5.10;98.30;;;;;;5035310;28;20029;-75
2023/10/15 07:08:36;;;;;;;3.22;0.85;;;5.20;98.30;;;;;;5024726;28;20025;-75
2023/10/15 07:11:05;;;;;;;3.78;0.93;;;5.20;98.10;;;;;;5030489;28;20459;-74
2023/10/15 07:13:31;;;;;;;5.88;1.10;;;5.30;98.00;;;;;;5019023;28;20037;-75
2023/10/15 07:15:56;;;;;;;3.47;0.85;;;5.30;97.90;;;;;;5031339;28;20034;-75
2023/10/15 07:18:22;;;;;;;1.70;0.90;;;5.40;97.80;;;;;;5020494;28;20045;-75
2023/10/15 07:20:47;;;;;;;8.40;1.10;;;5.40;97.60;;;;;;5034361;28;20384;-75
2023/10/15 07:23:13;;;;;;;1.52;0.50;;;5.40;97.50;;;;;;5023729;28;20036;-75
2023/10/15 07:25:39;;;;;;;3.58;0.90;;;5.50;97.40;;;;;;5034744;28;20171;-74
2023/10/15 07:28:05;;;;;;;5.82;1.10;;;5.60;97.30;;;;;;5023282;28;20064;-75
2023/10/15 07:30:30;;;;;;;4.25;0.90;;;5.60;97.20;;;;;;5031956;28;20110;-75
2023/10/15 07:32:58;;;;;;;5.18;0.80;;;5.70;97.00;;;;;;5027866;28;20500;-76
2023/10/15 07:35:31;;;;;;;5.18;0.82;;;5.70;96.80;;;;;;5032236;28;20053;-75
2023/10/15 07:37:57;;;;;;;4.80;1.00;;;5.70;96.70;;;;;;5031588;28;20036;-76
2023/10/15 07:40:26;;;;;;;2.42;0.75;;;5.80;96.60;;;;;;5026028;28;20090;-75
2023/10/15 07:42:58;;;;;;;4.88;1.05;;;5.90;96.50;;;;;;5030083;28;20910;-76
2023/10/15 07:45:27;;;;;;;2.60;0.90;;;5.90;96.40;;;;;;5019073;28;20757;-75
2023/10/15 07:47:54;;;;;;;2.20;0.80;;;6.00;96.30;;;;;;5040771;28;20037;-76
2023/10/15 07:50:27;;;;;;;3.35;0.77;;;6.00;96.10;;;;;;5019745;28;20550;-76
2023/10/15 07:52:53;;;;;;;4.70;0.80;;;6.00;96.00;;;;;;5035846;28;20111;-76
2023/10/15 07:55:23;;;;;;;3.92;1.55;;;6.10;96.00;;;;;;5023270;28;20067;-76
2023/10/15 07:57:49;;;;;;;3.28;0.70;;;6.20;96.00;;;;;;5030808;28;20051;-76
2023/10/15 08:00:15;;;;;;;2.80;0.90;;;6.20;96.00;;;;;;5021607;28;20792;-76
2023/10/15 08:02:45;;;;;;;3.90;0.80;;;6.20;95.90;;;;;;5039866;28;20074;-76
2023/10/15 08:05:11;;;;;;;5.32;1.00;;;6.30;95.70;;;;;;5021505;28;20112;-76
2023/10/15 08:07:38;;;;;;;6.47;1.38;;;6.30;95.50;;;;;;5037153;28;20519;-76
2023/10/15 08:10:04;;;;;;;3.03;0.60;;;6.40;95.50;;;;;;5023463;28;20029;-76
2023/10/15 08:12:31;;;;;;;4.38;0.80;;;6.40;95.50;;;;;;5035335;28;20118;-76
2023/10/15 08:14:57;;;;;;;3.55;1.13;;;6.50;95.50;;;;;;5019716;28;20033;-75
2023/10/15 08:17:23;;;;;;;2.83;0.75;;;6.50;95.30;;;;;;5032409;28;20036;-75
2023/10/15 08:19:50;;;;;;;5.55;1.25;;;6.50;95.10;;;;;;5025634;28;20064;-75
2023/10/15 08:22:15;;;;;;;4.72;1.33;;;6.60;95.00;;;;;;5038846;28;20033;-75
2023/10/15 08:24:41;;;;;;;6.38;1.25;;;6.60;94.90;;;;;;5024724;28;20040;-75
2023/10/15 08:27:07;;;;;;;3.22;0.98;;;6.70;94.70;;;;;;5037741;28;20041;-75
2023/10/15 08:29:33;;;;;;;7.18;0.60;;;6.70;94.80;;;;;;5038741;28;20037;-76
2023/10/15 08:31:59;;;;;;;2.38;0.60;;;6.80;95.00;;;;;;5024066;28;20031;-76
2023/10/15 08:34:25;;;;;;;2.05;0.80;;;6.90;94.70;;;;;;5036971;28;20036;-76
2023/10/15 08:36:50;;;;;;;2.83;0.80;;;7.00;94.60;;;;;;5022221;28;20036;-76
2023/10/15 08:39:16;;;;;;;5.03;0.70;;;7.10;94.30;;;;;;5035649;28;20037;-76
2023/10/15 08:41:45;;;;;;;0.77;0.60;;;7.20;94.20;;;;;;5025402;28;20116;-75
2023/10/15 08:44:12;;;;;;;5.95;0.90;;;7.20;94.10;;;;;;5029101;28;20111;-76
2023/10/15 08:46:40;;;;;;;5.90;1.05;;;7.30;94.30;;;;;;5021197;28;20036;-75
2023/10/15 08:49:08;;;;;;;4.45;0.93;;;7.30;94.00;;;;;;5039943;28;20528;-75
2023/10/15 08:51:35;;;;;;;3.28;0.80;;;7.50;93.90;;;;;;5023358;28;20044;-75
2023/10/15 08:54:03;;;;;;;4.20;0.73;;;7.50;93.70;;;;;;5039696;28;20032;-76
2023/10/15 08:56:30;;;;;;;1.27;0.60;;;7.60;93.50;;;;;;5024122;28;20816;-76
2023/10/15 08:58:57;;;;;;;5.72;0.98;;;7.60;93.30;;;;;;5034746;28;20416;-76
2023/10/15 09:01:23;;;;;;;3.03;0.77;;;7.70;93.10;;;;;;5026505;28;20546;-76
2023/10/15 09:03:52;;;;;;;4.93;0.88;;;7.70;92.90;;;;;;5033615;28;20037;-76
2023/10/15 09:06:20;;;;;;;5.13;0.68;;;7.80;92.80;;;;;;5022382;28;20477;-76
2023/10/15 09:08:46;;;;;;;5.45;0.80;;;7.90;92.90;;;;;;5037498;28;21647;-76
2023/10/15 09:11:16;;;;;;;2.88;0.77;;;7.90;92.30;;;;;;5027363;28;20781;-76
2023/10/15 09:13:42;;;;;;;3.00;0.73;;;8.00;91.80;;;;;;5030528;28;20041;-76
2023/10/15 09:16:08;;;;;;;4.63;1.13;;;7.90;91.50;;;;;;5032606;28;20090;-76
2023/10/15 09:18:35;;;;;;;4.72;1.00;;;8.00;91.80;;;;;;5020982;28;20792;-76
2023/10/15 09:21:04;;;;;;;4.60;1.10;;;8.20;92.00;;;;;;5036208;28;20033;-76
2023/10/15 09:23:35;;;;;;;3.05;1.10;;;8.40;91.80;;;;;;5028825;28;20075;-74
2023/10/15 09:26:01;;;;;;;1.65;0.70;;;8.40;91.20;;;;;;5038416;28;20056;-75
2023/10/15 09:28:28;;;;;;;2.97;1.08;;;8.50;91.10;;;;;;5028726;28;20071;-75
2023/10/15 09:31:02;;;;;;;2.22;1.13;;;8.50;91.10;;;;;;5045795;28;20505;-75
2023/10/15 09:33:30;;;;;;;5.43;1.08;;;8.60;90.70;;;;;;5031610;28;20388;-75
2023/10/15 09:35:57;;;;;;;3.17;0.90;;;8.60;90.50;;;;;;5058361;28;20068;-76
2023/10/15 09:38:23;;;;;;;4.70;0.90;;;8.60;90.80;;;;;;5028789;28;20041;-75
2023/10/15 09:40:49;;;;;;;5.13;1.00;;;8.60;91.30;;;;;;5033533;28;20037;-75
2023/10/15 09:43:15;;;;;;;3.38;0.85;;;8.80;91.30;;;;;;5022596;28;20129;-75
2023/10/15 09:45:42;;;;;;;3.28;0.73;;;9.00;90.00;;;;;;5029609;28;20033;-75
2023/10/15 09:48:09;;;;;;;3.45;0.98;;;9.00;89.50;;;;;;5020469;28;20059;-75
2023/10/15 09:50:38;;;;;;;9.05;1.00;;;9.10;89.70;;;;;;5031162;28;20063;-76
2023/10/15 09:53:12;;;;;;;6.38;0.75;;;9.20;88.20;;;;;;5025064;28;20033;-75
2023/10/15 09:55:40;;;;;;;4.30;0.68;;;9.30;87.20;;;;;;5038571;28;21372;-76
2023/10/15 09:58:06;;;;;;;4.38;0.93;;;9.40;86.70;;;;;;5019687;28;20083;-75
2023/10/15 10:00:48;;;;;;;5.78;1.30;;;9.50;85.10;;;;;;5035330;28;20032;-76
2023/10/15 10:03:37;;;;;;;4.47;0.70;;;9.60;85.00;;;;;;5023785;28;20037;-75
2023/10/15 10:06:42;;;;;;;5.18;1.05;;;9.80;82.80;;;;;;5028992;28;20550;-75
2023/10/15 10:09:28;;;;;;;5.05;0.90;;;9.80;81.30;;;;;;5019977;28;20550;-76
2023/10/15 10:11:56;;;;;;;4.00;0.70;;;9.80;81.10;;;;;;5029599;28;20037;-75
2023/10/15 10:14:54;;;;;;;4.22;0.75;;;10.00;79.00;;;;;;5023589;28;20033;-75
2023/10/15 10:17:21;;;;;;;4.85;1.10;;;10.00;75.90;;;;;;5032233;28;20157;-76
2023/10/15 10:19:52;;;;;;;2.55;0.80;;;10.10;76.60;;;;;;5020834;28;20041;-75
2023/10/15 10:22:22;;;;;;;4.15;1.13;;;10.20;76.70;;;;;;5036405;28;20028;-76
2023/10/15 10:24:48;;;;;;;4.68;0.70;;;10.40;76.10;;;;;;5022678;28;20497;-76
2023/10/15 10:27:15;;;;;;;5.60;1.10;;;10.40;75.50;;;;;;5036521;28;20067;-75
2023/10/15 10:29:43;;;;;;;3.08;0.50;;;10.40;75.80;;;;;;5022729;28;20786;-75
2023/10/15 10:32:13;;;;;;;3.33;0.68;;;10.50;74.90;;;;;;5031195;28;20037;-75
2023/10/15 10:34:39;;;;;;;3.58;0.85;;;10.40;72.50;;;;;;5023478;28;20033;-75
2023/10/15 10:37:19;;;;;;;4.57;0.90;;;10.50;74.10;;;;;;5033543;28;20045;-75
2023/10/15 10:39:45;;;;;;;3.95;0.95;;;10.70;73.20;;;;;;5020592;28;20041;-75
2023/10/15 10:42:26;;;;;;;4.22;1.20;;;10.70;69.70;;;;;;5038556;28;21569;-75
2023/10/15 10:44:56;;;;;;;3.03;0.88;;;10.70;70.50;;;;;;5017388;28;20032;-75
2023/10/15 10:47:28;;;;;;;8.82;1.05;;;10.80;70.00;;;;;;5031881;28;20116;-75
2023/10/15 10:49:58;;;;;;;4.82;1.15;;;11.00;71.10;;;;;;5023272;28;20036;-75
2023/10/15 10:52:29;;;;;;;5.68;0.88;;;11.00;69.20;;;;;;5027304;28;20494;-76
2023/10/15 10:55:16;;;;;;;4.63;0.90;;;11.20;68.50;;;;;;5025264;28;20036;-75
2023/10/15 10:57:42;;;;;;;1.92;0.70;;;11.40;67.90;;;;;;5036601;28;20480;-75
2023/10/15 11:00:12;;;;;;;3.90;0.88;;;11.30;67.20;;;;;;5025415;28;20570;-75
2023/10/15 11:02:37;;;;;;;4.00;0.77;;;11.40;64.70;;;;;;5034243;28;20055;-75
2023/10/15 11:05:06;;;;;;;5.72;1.08;;;11.60;64.20;;;;;;5021743;28;20032;-74
2023/10/15 11:07:35;;;;;;;3.05;0.63;;;11.60;61.40;;;;;;5035381;28;20083;-77
2023/10/15 11:10:05;;;;;;;7.40;1.20;;;11.60;62.30;;;;;;5054519;28;20021;-76
2023/10/15 11:12:31;;;;;;;5.95;0.95;;;11.50;61.10;;;;;;5053948;28;20059;-76
2023/10/15 11:14:57;;;;;;;4.30;0.75;;;11.50;58.60;;;;;;5062498;28;20036;-75
2023/10/15 11:17:23;;;;;;;6.45;0.90;;;11.60;61.50;;;;;;5049505;28;20036;-75
2023/10/15 11:19:50;;;;;;;5.10;0.82;;;11.60;59.00;;;;;;5063150;28;20041;-76
2023/10/15 11:22:15;;;;;;;3.67;0.82;;;11.60;58.50;;;;;;5052082;28;20106;-74
2023/10/15 11:24:43;;;;;;;6.88;1.38;;;11.60;58.30;;;;;;5053646;28;20425;-75
2023/10/15 11:27:11;;;;;;;6.05;1.00;;;11.70;60.70;;;;;;5035971;28;20049;-74
2023/10/15 11:29:37;;;;;;;4.25;0.73;;;11.80;58.10;;;;;;5052356;28;20021;-75
2023/10/15 11:32:06;;;;;;;3.28;0.60;;;11.80;54.80;;;;;;5037539;28;20021;-77
2023/10/15 11:34:33;;;;;;;4.20;0.90;;;11.80;55.80;;;;;;5056790;28;20025;-76
2023/10/15 11:37:01;;;;;;;4.55;0.77;;;11.80;55.40;;;;;;5041189;28;20023;-73
2023/10/15 11:39:37;;;;;;;5.45;0.98;;;11.70;56.80;;;;;;5052739;28;20025;-74
2023/10/15 11:42:03;;;;;;;4.57;0.90;;;11.80;56.60;;;;;;5040636;28;20017;-74
2023/10/15 11:44:30;;;;;;;3.20;0.82;;;12.00;57.30;;;;;;5043185;28;20036;-75
2023/10/15 11:46:57;;;;;;;3.65;0.60;;;12.00;56.90;;;;;;5032101;28;20025;-75
2023/10/15 11:49:25;;;;;;;3.53;0.80;;;12.00;59.00;;;;;;5040848;28;20124;-75
2023/10/15 11:51:56;;;;;;;3.75;0.80;;;12.10;58.50;;;;;;5029867;28;20037;-75
2023/10/15 11:54:30;;;;;;;2.22;0.68;;;12.10;59.40;;;;;;5038763;28;20033;-75
2023/10/15 11:56:56;;;;;;;4.32;1.00;;;12.10;56.60;;;;;;5031835;28;20333;-74
2023/10/15 11:59:22;;;;;;;3.85;0.90;;;12.00;57.30;;;;;;5039094;28;20068;-75
2023/10/15 12:01:51;;;;;;;2.58;0.47;;;12.10;58.20;;;;;;5032084;28;20125;-74
2023/10/15 12:04:19;;;;;;;4.93;0.63;;;11.90;49.40;;;;;;5034621;28;20021;-74
2023/10/15 12:06:45;;;;;;;3.85;0.52;;;11.80;51.50;;;;;;5037171;28;20037;-75
2023/10/15 12:09:12;;;;;;;2.63;0.60;;;11.80;49.70;;;;;;5034448;28;21372;-75
2023/10/15 12:11:40;;;;;;;1.83;0.75;;;11.80;48.40;;;;;;5037337;28;20512;-75
2023/10/15 12:14:05;;;;;;;1.67;0.75;;;11.80;48.70;;;;;;5027618;28;20033;-75
2023/10/15 12:16:31;;;;;;;3.03;0.50;;;11.90;50.10;;;;;;5036657;28;20469;-75
2023/10/15 12:18:57;;;;;;;3.70;0.80;;;11.90;49.70;;;;;;5033917;28;20111;-74
2023/10/15 12:21:23;;;;;;;0.98;0.40;;;12.10;49.10;;;;;;5052009;28;20025;-74
2023/10/15 12:23:48;;;;;;;2.35;0.68;;;12.10;49.40;;;;;;5038551;28;20017;-75
2023/10/15 12:26:14;;;;;;;1.98;0.80;;;12.20;48.70;;;;;;5059940;28;20048;-75
2023/10/15 12:28:46;;;;;;;3.97;0.77;;;12.20;49.90;;;;;;5036409;28;20457;-74
2023/10/15 12:31:12;;;;;;;2.95;0.40;;;12.30;50.10;;;;;;5034759;28;20876;-75
2023/10/15 12:33:38;;;;;;;3.40;0.60;;;12.40;49.40;;;;;;5023385;28;20072;-77
2023/10/15 12:36:07;;;;;;;3.22;1.05;;;12.20;49.70;;;;;;5035136;28;20063;-74
2023/10/15 12:38:34;;;;;;;3.10;0.50;;;12.00;51.20;;;;;;5023407;28;20036;-77
2023/10/15 12:41:00;;;;;;;2.55;0.68;;;12.00;50.60;;;;;;5037419;28;20033;-77
2023/10/15 12:43:26;;;;;;;3.05;0.60;;;12.00;50.90;;;;;;5025988;28;20547;-75
2023/10/15 12:45:53;;;;;;;11.65;0.98;;;12.30;50.60;;;;;;5030157;28;20033;-74
2023/10/15 12:48:20;;;;;;;1.63;0.45;;;12.30;49.80;;;;;;5032808;28;20128;-77
2023/10/15 12:50:47;;;;;;;1.83;0.57;;;12.30;50.80;;;;;;5029065;28;20033;-74
2023/10/15 12:53:13;;;;;;;1.60;0.65;;;12.60;49.60;;;;;;5035071;28;20036;-77
2023/10/15 12:55:39;;;;;;;1.92;0.60;;;12.70;51.40;;;;;;5028685;28;20029;-76
2023/10/15 12:58:05;;;;;;;4.22;0.80;;;12.70;48.70;;;;;;5033361;28;20044;-76
2023/10/15 13:00:32;;;;;;;2.88;0.85;;;12.70;48.40;;;;;;5026823;28;20071;-77
2023/10/15 13:02:58;;;;;;;2.88;0.85;;;12.60;45.90;;;;;;5035315;28;21485;-76
2023/10/15 13:05:26;;;;;;;2.55;0.65;;;12.70;46.00;;;;;;5020367;28;20051;-77
2023/10/15 13:07:53;;;;;;;3.95;0.68;;;12.60;45.80;;;;;;5036351;28;20091;-74